sensor_id;sensor_type;location;lat;lon;timestamp;P1;durP1;ratioP1;P2;durP2;ratioP2
45344;SDS011;31078;48.304;11.896;2022-08-01T00:01:45;3.50;;;2.45;;
45344;SDS011;31078;48.304;11.896;2022-08-01T00:04:11;4.35;;;2.55;;
45344;SDS011;31078;48.304;11.896;2022-08-01T00:06:38;4.65;;;2.55;;
45344;SDS011;31078;48.304;11.896;2022-08-01T00:09:04;4.63;;;2.33;;
45344;SDS011;31078;48.304;11.896;2022-08-01T00:11:32;4.55;;;2.40;;
45344;SDS011;31078;48.304;11.896;2022-08-01T00:13:58;3.38;;;2.40;;
45344;SDS011;31078;48.304;11.896;2022-08-01T00:16:25;3.15;;;2.47;;
45344;SDS011;31078;48.304;11.896;2022-08-01T00:18:51;3.35;;;2.42;;
45344;SDS011;31078;48.304;11.896;2022-08-01T00:21:19;4.93;;;2.45;;
45344;SDS011;31078;48.304;11.896;2022-08-01T00:23:45;3.70;;;2.47;;
45344;SDS011;31078;48.304;11.896;2022-08-01T00:26:12;4.65;;;2.90;;
45344;SDS011;31078;48.304;11.896;2022-08-01T00:28:40;3.38;;;2.38;;
45344;SDS011;31078;48.304;11.896;2022-08-01T00:31:07;3.85;;;2.60;;
45344;SDS011;31078;48.304;11.896;2022-08-01T00:33:34;5.18;;;2.30;;
45344;SDS011;31078;48.304;11.896;2022-08-01T00:36:00;4.60;;;2.72;;
45344;SDS011;31078;48.304;11.896;2022-08-01T00:38:27;4.57;;;2.60;;
45344;SDS011;31078;48.304;11.896;2022-08-01T00:40:53;4.55;;;2.50;;
45344;SDS011;31078;48.304;11.896;2022-08-01T00:43:20;4.38;;;2.60;;
45344;SDS011;31078;48.304;11.896;2022-08-01T00:45:48;5.18;;;2.90;;
45344;SDS011;31078;48.304;11.896;2022-08-01T00:48:15;3.90;;;2.70;;
45344;SDS011;31078;48.304;11.896;2022-08-01T00:50:41;2.78;;;2.40;;
45344;SDS011;31078;48.304;11.896;2022-08-01T00:53:08;3.15;;;2.28;;
45344;SDS011;31078;48.304;11.896;2022-08-01T00:55:34;3.92;;;2.65;;
45344;SDS011;31078;48.304;11.896;2022-08-01T00:58:01;3.60;;;2.90;;
45344;SDS011;31078;48.304;11.896;2022-08-01T01:00:27;3.45;;;2.85;;
45344;SDS011;31078;48.304;11.896;2022-08-01T01:02:55;3.17;;;2.40;;
45344;SDS011;31078;48.304;11.896;2022-08-01T01:05:22;6.60;;;2.72;;
45344;SDS011;31078;48.304;11.896;2022-08-01T01:07:50;3.92;;;2.55;;
45344;SDS011;31078;48.304;11.896;2022-08-01T01:10:23;3.42;;;2.60;;
45344;SDS011;31078;48.304;11.896;2022-08-01T01:12:55;5.53;;;2.70;;
45344;SDS011;31078;48.304;11.896;2022-08-01T01:15:28;4.28;;;2.53;;
45344;SDS011;31078;48.304;11.896;2022-08-01T01:18:03;4.10;;;2.70;;
45344;SDS011;31078;48.304;11.896;2022-08-01T01:20:34;3.55;;;2.47;;
45344;SDS011;31078;48.304;11.896;2022-08-01T01:23:12;6.25;;;2.80;;
45344;SDS011;31078;48.304;11.896;2022-08-01T01:26:05;4.22;;;2.78;;
45344;SDS011;31078;48.304;11.896;2022-08-01T01:28:52;4.22;;;2.50;;
45344;SDS011;31078;48.304;11.896;2022-08-01T01:31:26;2.80;;;2.50;;
45344;SDS011;31078;48.304;11.896;2022-08-01T01:33:55;3.20;;;2.72;;
45344;SDS011;31078;48.304;11.896;2022-08-01T01:36:24;3.65;;;2.72;;
45344;SDS011;31078;48.304;11.896;2022-08-01T01:38:53;2.70;;;2.35;;
45344;SDS011;31078;48.304;11.896;2022-08-01T01:41:20;7.38;;;2.75;;
45344;SDS011;31078;48.304;11.896;2022-08-01T01:43:48;4.03;;;2.70;;
45344;SDS011;31078;48.304;11.896;2022-08-01T01:46:18;4.18;;;2.38;;
45344;SDS011;31078;48.304;11.896;2022-08-01T01:48:48;3.45;;;2.40;;
45344;SDS011;31078;48.304;11.896;2022-08-01T01:51:18;3.80;;;2.85;;
45344;SDS011;31078;48.304;11.896;2022-08-01T01:53:48;3.33;;;2.58;;
45344;SDS011;31078;48.304;11.896;2022-08-01T01:56:17;4.97;;;2.88;;
45344;SDS011;31078;48.304;11.896;2022-08-01T01:58:47;4.30;;;2.60;;
45344;SDS011;31078;48.304;11.896;2022-08-01T02:01:17;3.15;;;2.63;;
45344;SDS011;31078;48.304;11.896;2022-08-01T02:03:45;4.03;;;2.70;;
45344;SDS011;31078;48.304;11.896;2022-08-01T02:06:14;4.90;;;2.90;;
45344;SDS011;31078;48.304;11.896;2022-08-01T02:08:42;4.75;;;3.03;;
45344;SDS011;31078;48.304;11.896;2022-08-01T02:11:11;3.47;;;2.70;;
45344;SDS011;31078;48.304;11.896;2022-08-01T02:13:48;4.40;;;3.10;;
45344;SDS011;31078;48.304;11.896;2022-08-01T02:16:21;4.53;;;2.60;;
45344;SDS011;31078;48.304;11.896;2022-08-01T02:18:50;3.13;;;2.70;;
45344;SDS011;31078;48.304;11.896;2022-08-01T02:21:19;3.90;;;2.70;;
45344;SDS011;31078;48.304;11.896;2022-08-01T02:23:51;5.13;;;2.88;;
45344;SDS011;31078;48.304;11.896;2022-08-01T02:26:18;5.65;;;2.92;;
45344;SDS011;31078;48.304;11.896;2022-08-01T02:28:47;4.32;;;2.88;;
45344;SDS011;31078;48.304;11.896;2022-08-01T02:31:17;3.78;;;3.05;;
45344;SDS011;31078;48.304;11.896;2022-08-01T02:33:50;6.30;;;2.70;;
45344;SDS011;31078;48.304;11.896;2022-08-01T02:36:23;3.45;;;2.78;;
45344;SDS011;31078;48.304;11.896;2022-08-01T02:38:51;3.65;;;2.65;;
45344;SDS011;31078;48.304;11.896;2022-08-01T02:41:21;7.45;;;3.40;;
45344;SDS011;31078;48.304;11.896;2022-08-01T02:43:51;4.40;;;2.72;;
45344;SDS011;31078;48.304;11.896;2022-08-01T02:46:22;4.63;;;2.97;;
45344;SDS011;31078;48.304;11.896;2022-08-01T02:48:55;5.13;;;2.77;;
45344;SDS011;31078;48.304;11.896;2022-08-01T02:51:24;4.47;;;2.75;;
45344;SDS011;31078;48.304;11.896;2022-08-01T02:53:52;3.80;;;2.72;;
45344;SDS011;31078;48.304;11.896;2022-08-01T02:56:20;4.70;;;2.80;;
45344;SDS011;31078;48.304;11.896;2022-08-01T02:58:48;4.32;;;2.95;;
45344;SDS011;31078;48.304;11.896;2022-08-01T03:01:16;3.92;;;3.10;;
45344;SDS011;31078;48.304;11.896;2022-08-01T03:03:44;3.75;;;2.60;;
45344;SDS011;31078;48.304;11.896;2022-08-01T03:06:13;3.75;;;2.67;;
45344;SDS011;31078;48.304;11.896;2022-08-01T03:08:41;6.25;;;2.90;;
45344;SDS011;31078;48.304;11.896;2022-08-01T03:11:09;7.15;;;3.30;;
45344;SDS011;31078;48.304;11.896;2022-08-01T03:13:38;6.22;;;3.17;;
45344;SDS011;31078;48.304;11.896;2022-08-01T03:16:08;7.07;;;2.40;;
45344;SDS011;31078;48.304;11.896;2022-08-01T03:18:36;5.68;;;2.58;;
45344;SDS011;31078;48.304;11.896;2022-08-01T03:21:04;4.65;;;2.88;;
45344;SDS011;31078;48.304;11.896;2022-08-01T03:23:34;4.10;;;2.50;;
45344;SDS011;31078;48.304;11.896;2022-08-01T03:26:02;2.95;;;2.65;;
45344;SDS011;31078;48.304;11.896;2022-08-01T03:28:31;3.85;;;2.50;;
45344;SDS011;31078;48.304;11.896;2022-08-01T03:30:58;4.22;;;2.90;;
45344;SDS011;31078;48.304;11.896;2022-08-01T03:33:28;4.85;;;2.80;;
45344;SDS011;31078;48.304;11.896;2022-08-01T03:35:55;5.18;;;3.03;;
45344;SDS011;31078;48.304;11.896;2022-08-01T03:38:25;3.83;;;2.78;;
45344;SDS011;31078;48.304;11.896;2022-08-01T03:40:56;4.40;;;2.78;;
45344;SDS011;31078;48.304;11.896;2022-08-01T03:43:30;3.83;;;2.90;;
45344;SDS011;31078;48.304;11.896;2022-08-01T03:46:03;5.05;;;3.10;;
45344;SDS011;31078;48.304;11.896;2022-08-01T03:48:35;5.97;;;2.92;;
45344;SDS011;31078;48.304;11.896;2022-08-01T03:51:03;5.32;;;2.90;;
45344;SDS011;31078;48.304;11.896;2022-08-01T03:53:31;5.05;;;3.50;;
45344;SDS011;31078;48.304;11.896;2022-08-01T03:56:01;6.18;;;3.15;;
45344;SDS011;31078;48.304;11.896;2022-08-01T03:58:29;6.18;;;3.10;;
45344;SDS011;31078;48.304;11.896;2022-08-01T04:00:57;5.07;;;3.03;;
45344;SDS011;31078;48.304;11.896;2022-08-01T04:03:23;6.88;;;2.80;;
45344;SDS011;31078;48.304;11.896;2022-08-01T04:05:50;5.63;;;3.00;;
45344;SDS011;31078;48.304;11.896;2022-08-01T04:08:17;5.38;;;3.45;;
45344;SDS011;31078;48.304;11.896;2022-08-01T04:10:43;4.03;;;2.97;;
45344;SDS011;31078;48.304;11.896;2022-08-01T04:13:11;6.80;;;3.53;;
45344;SDS011;31078;48.304;11.896;2022-08-01T04:15:38;6.43;;;3.25;;
45344;SDS011;31078;48.304;11.896;2022-08-01T04:18:04;6.35;;;3.08;;
45344;SDS011;31078;48.304;11.896;2022-08-01T04:20:31;4.53;;;2.60;;
45344;SDS011;31078;48.304;11.896;2022-08-01T04:22:58;8.88;;;3.55;;
45344;SDS011;31078;48.304;11.896;2022-08-01T04:25:25;4.20;;;2.70;;
45344;SDS011;31078;48.304;11.896;2022-08-01T04:27:54;7.13;;;3.67;;
45344;SDS011;31078;48.304;11.896;2022-08-01T04:30:23;5.75;;;2.90;;
45344;SDS011;31078;48.304;11.896;2022-08-01T04:32:54;6.25;;;3.20;;
45344;SDS011;31078;48.304;11.896;2022-08-01T04:35:22;5.97;;;3.17;;
45344;SDS011;31078;48.304;11.896;2022-08-01T04:37:50;5.00;;;2.90;;
45344;SDS011;31078;48.304;11.896;2022-08-01T04:40:19;7.90;;;3.25;;
45344;SDS011;31078;48.304;11.896;2022-08-01T04:42:47;6.78;;;2.50;;
45344;SDS011;31078;48.304;11.896;2022-08-01T04:45:14;4.40;;;2.80;;
45344;SDS011;31078;48.304;11.896;2022-08-01T04:47:43;4.15;;;2.38;;
45344;SDS011;31078;48.304;11.896;2022-08-01T04:50:11;5.38;;;2.20;;
45344;SDS011;31078;48.304;11.896;2022-08-01T04:52:37;4.20;;;2.40;;
45344;SDS011;31078;48.304;11.896;2022-08-01T04:55:07;4.32;;;2.63;;
45344;SDS011;31078;48.304;11.896;2022-08-01T04:57:34;5.82;;;3.42;;
45344;SDS011;31078;48.304;11.896;2022-08-01T05:00:05;7.97;;;2.88;;
45344;SDS011;31078;48.304;11.896;2022-08-01T05:02:33;6.55;;;2.88;;
45344;SDS011;31078;48.304;11.896;2022-08-01T05:05:01;6.25;;;3.15;;
45344;SDS011;31078;48.304;11.896;2022-08-01T05:07:27;6.00;;;2.53;;
45344;SDS011;31078;48.304;11.896;2022-08-01T05:09:54;7.20;;;3.35;;
45344;SDS011;31078;48.304;11.896;2022-08-01T05:12:21;4.57;;;2.65;;
45344;SDS011;31078;48.304;11.896;2022-08-01T05:14:47;7.38;;;2.90;;
45344;SDS011;31078;48.304;11.896;2022-08-01T05:17:14;7.45;;;2.80;;
45344;SDS011;31078;48.304;11.896;2022-08-01T05:19:41;8.50;;;3.10;;
45344;SDS011;31078;48.304;11.896;2022-08-01T05:22:10;11.35;;;3.75;;
45344;SDS011;31078;48.304;11.896;2022-08-01T05:24:37;12.95;;;4.15;;
45344;SDS011;31078;48.304;11.896;2022-08-01T05:27:05;4.22;;;2.63;;
45344;SDS011;31078;48.304;11.896;2022-08-01T05:29:33;8.80;;;3.30;;
45344;SDS011;31078;48.304;11.896;2022-08-01T05:32:00;10.45;;;3.78;;
45344;SDS011;31078;48.304;11.896;2022-08-01T05:34:26;4.80;;;2.35;;
45344;SDS011;31078;48.304;11.896;2022-08-01T05:36:53;3.03;;;2.20;;
45344;SDS011;31078;48.304;11.896;2022-08-01T05:39:21;3.92;;;2.40;;
45344;SDS011;31078;48.304;11.896;2022-08-01T05:41:48;3.92;;;2.35;;
45344;SDS011;31078;48.304;11.896;2022-08-01T05:44:14;4.40;;;2.67;;
45344;SDS011;31078;48.304;11.896;2022-08-01T05:46:41;5.55;;;2.22;;
45344;SDS011;31078;48.304;11.896;2022-08-01T05:49:07;8.88;;;2.85;;
45344;SDS011;31078;48.304;11.896;2022-08-01T05:51:34;4.88;;;2.70;;
45344;SDS011;31078;48.304;11.896;2022-08-01T05:54:00;3.90;;;2.58;;
45344;SDS011;31078;48.304;11.896;2022-08-01T05:56:28;3.53;;;2.53;;
45344;SDS011;31078;48.304;11.896;2022-08-01T05:58:55;5.03;;;2.70;;
45344;SDS011;31078;48.304;11.896;2022-08-01T06:01:21;3.95;;;2.40;;
45344;SDS011;31078;48.304;11.896;2022-08-01T06:03:48;4.70;;;3.08;;
45344;SDS011;31078;48.304;11.896;2022-08-01T06:06:15;5.63;;;2.78;;
45344;SDS011;31078;48.304;11.896;2022-08-01T06:08:41;8.10;;;3.10;;
45344;SDS011;31078;48.304;11.896;2022-08-01T06:14:08;7.55;;;4.35;;
45344;SDS011;31078;48.304;11.896;2022-08-01T06:16:35;6.65;;;3.38;;
45344;SDS011;31078;48.304;11.896;2022-08-01T06:19:02;4.63;;;2.50;;
45344;SDS011;31078;48.304;11.896;2022-08-01T06:21:29;4.60;;;2.40;;
45344;SDS011;31078;48.304;11.896;2022-08-01T06:23:56;3.80;;;2.65;;
45344;SDS011;31078;48.304;11.896;2022-08-01T06:26:23;10.55;;;2.80;;
45344;SDS011;31078;48.304;11.896;2022-08-01T06:28:50;6.03;;;2.63;;
45344;SDS011;31078;48.304;11.896;2022-08-01T06:31:18;9.80;;;5.18;;
45344;SDS011;31078;48.304;11.896;2022-08-01T06:33:45;4.50;;;2.65;;
45344;SDS011;31078;48.304;11.896;2022-08-01T06:36:12;7.78;;;3.95;;
45344;SDS011;31078;48.304;11.896;2022-08-01T06:38:38;5.70;;;2.72;;
45344;SDS011;31078;48.304;11.896;2022-08-01T06:41:05;4.45;;;2.80;;
45344;SDS011;31078;48.304;11.896;2022-08-01T06:43:31;8.38;;;2.72;;
45344;SDS011;31078;48.304;11.896;2022-08-01T06:45:58;5.68;;;2.78;;
45344;SDS011;31078;48.304;11.896;2022-08-01T06:48:26;3.05;;;2.58;;
45344;SDS011;31078;48.304;11.896;2022-08-01T06:50:52;6.90;;;2.80;;
45344;SDS011;31078;48.304;11.896;2022-08-01T06:53:32;5.18;;;2.65;;
45344;SDS011;31078;48.304;11.896;2022-08-01T06:55:59;5.18;;;2.63;;
45344;SDS011;31078;48.304;11.896;2022-08-01T06:58:26;4.43;;;2.47;;
45344;SDS011;31078;48.304;11.896;2022-08-01T07:11:49;10.57;;;3.05;;
45344;SDS011;31078;48.304;11.896;2022-08-01T07:14:17;8.23;;;3.25;;
45344;SDS011;31078;48.304;11.896;2022-08-01T07:16:44;4.53;;;2.58;;
45344;SDS011;31078;48.304;11.896;2022-08-01T07:21:46;4.53;;;2.70;;
45344;SDS011;31078;48.304;11.896;2022-08-01T07:24:13;5.10;;;2.38;;
45344;SDS011;31078;48.304;11.896;2022-08-01T07:26:41;5.88;;;2.50;;
45344;SDS011;31078;48.304;11.896;2022-08-01T07:29:10;7.10;;;3.33;;
45344;SDS011;31078;48.304;11.896;2022-08-01T07:31:37;4.78;;;2.10;;
45344;SDS011;31078;48.304;11.896;2022-08-01T07:34:04;8.48;;;2.58;;
45344;SDS011;31078;48.304;11.896;2022-08-01T07:36:30;3.78;;;2.47;;
45344;SDS011;31078;48.304;11.896;2022-08-01T07:38:57;3.45;;;2.35;;
45344;SDS011;31078;48.304;11.896;2022-08-01T07:41:24;3.67;;;2.30;;
45344;SDS011;31078;48.304;11.896;2022-08-01T07:43:50;4.43;;;2.60;;
45344;SDS011;31078;48.304;11.896;2022-08-01T07:46:18;7.75;;;2.78;;
45344;SDS011;31078;48.304;11.896;2022-08-01T07:48:45;4.95;;;2.53;;
45344;SDS011;31078;48.304;11.896;2022-08-01T07:53:47;5.75;;;2.63;;
45344;SDS011;31078;48.304;11.896;2022-08-01T07:56:14;7.75;;;3.00;;
45344;SDS011;31078;48.304;11.896;2022-08-01T07:58:41;4.53;;;3.20;;
45344;SDS011;31078;48.304;11.896;2022-08-01T08:01:08;5.30;;;2.47;;
45344;SDS011;31078;48.304;11.896;2022-08-01T08:03:36;5.00;;;2.63;;
45344;SDS011;31078;48.304;11.896;2022-08-01T08:06:03;3.28;;;2.50;;
45344;SDS011;31078;48.304;11.896;2022-08-01T08:11:05;5.22;;;2.53;;
45344;SDS011;31078;48.304;11.896;2022-08-01T08:13:52;5.00;;;2.53;;
45344;SDS011;31078;48.304;11.896;2022-08-01T08:16:19;5.50;;;2.75;;
45344;SDS011;31078;48.304;11.896;2022-08-01T08:18:47;3.47;;;2.15;;
45344;SDS011;31078;48.304;11.896;2022-08-01T08:21:14;6.20;;;2.60;;
45344;SDS011;31078;48.304;11.896;2022-08-01T08:23:41;6.40;;;2.50;;
45344;SDS011;31078;48.304;11.896;2022-08-01T08:26:25;3.90;;;2.22;;
45344;SDS011;31078;48.304;11.896;2022-08-01T08:28:52;6.93;;;3.40;;
45344;SDS011;31078;48.304;11.896;2022-08-01T08:31:33;5.65;;;2.28;;
45344;SDS011;31078;48.304;11.896;2022-08-01T08:39:20;4.47;;;3.00;;
45344;SDS011;31078;48.304;11.896;2022-08-01T08:41:47;5.13;;;2.50;;
45344;SDS011;31078;48.304;11.896;2022-08-01T08:44:14;4.07;;;3.05;;
45344;SDS011;31078;48.304;11.896;2022-08-01T08:46:42;4.80;;;2.47;;
45344;SDS011;31078;48.304;11.896;2022-08-01T08:49:11;7.38;;;3.22;;
45344;SDS011;31078;48.304;11.896;2022-08-01T08:51:41;7.00;;;2.60;;
45344;SDS011;31078;48.304;11.896;2022-08-01T08:54:11;9.98;;;4.10;;
45344;SDS011;31078;48.304;11.896;2022-08-01T08:56:42;5.07;;;2.40;;
45344;SDS011;31078;48.304;11.896;2022-08-01T08:59:19;4.78;;;3.05;;
45344;SDS011;31078;48.304;11.896;2022-08-01T09:04:27;3.67;;;2.30;;
45344;SDS011;31078;48.304;11.896;2022-08-01T09:06:55;6.53;;;2.58;;
45344;SDS011;31078;48.304;11.896;2022-08-01T09:09:21;4.43;;;2.78;;
45344;SDS011;31078;48.304;11.896;2022-08-01T09:11:50;3.92;;;2.63;;
45344;SDS011;31078;48.304;11.896;2022-08-01T09:14:18;3.33;;;2.63;;
45344;SDS011;31078;48.304;11.896;2022-08-01T09:16:58;3.83;;;2.28;;
45344;SDS011;31078;48.304;11.896;2022-08-01T09:19:27;3.25;;;2.42;;
45344;SDS011;31078;48.304;11.896;2022-08-01T09:22:02;3.00;;;2.30;;
45344;SDS011;31078;48.304;11.896;2022-08-01T09:24:31;3.63;;;2.35;;
45344;SDS011;31078;48.304;11.896;2022-08-01T09:27:00;3.67;;;2.13;;
45344;SDS011;31078;48.304;11.896;2022-08-01T09:32:08;4.15;;;2.78;;
45344;SDS011;31078;48.304;11.896;2022-08-01T09:34:35;4.32;;;2.92;;
45344;SDS011;31078;48.304;11.896;2022-08-01T09:37:02;4.75;;;2.40;;
45344;SDS011;31078;48.304;11.896;2022-08-01T09:39:31;4.93;;;2.63;;
45344;SDS011;31078;48.304;11.896;2022-08-01T09:44:56;3.35;;;2.22;;
45344;SDS011;31078;48.304;11.896;2022-08-01T09:47:23;3.00;;;2.30;;
45344;SDS011;31078;48.304;11.896;2022-08-01T09:50:03;5.32;;;2.58;;
45344;SDS011;31078;48.304;11.896;2022-08-01T09:52:31;4.47;;;2.33;;
45344;SDS011;31078;48.304;11.896;2022-08-01T09:54:59;3.35;;;2.10;;
45344;SDS011;31078;48.304;11.896;2022-08-01T09:57:27;2.83;;;2.17;;
45344;SDS011;31078;48.304;11.896;2022-08-01T09:59:58;2.85;;;2.30;;
45344;SDS011;31078;48.304;11.896;2022-08-01T10:02:27;6.45;;;2.40;;
45344;SDS011;31078;48.304;11.896;2022-08-01T10:04:55;4.60;;;2.10;;
45344;SDS011;31078;48.304;11.896;2022-08-01T10:07:22;3.42;;;2.10;;
45344;SDS011;31078;48.304;11.896;2022-08-01T10:09:51;3.55;;;2.20;;
45344;SDS011;31078;48.304;11.896;2022-08-01T10:12:19;4.72;;;2.78;;
45344;SDS011;31078;48.304;11.896;2022-08-01T10:14:49;4.25;;;2.05;;
45344;SDS011;31078;48.304;11.896;2022-08-01T10:17:19;6.43;;;2.30;;
45344;SDS011;31078;48.304;11.896;2022-08-01T10:19:46;4.35;;;2.40;;
45344;SDS011;31078;48.304;11.896;2022-08-01T10:22:15;4.38;;;2.70;;
45344;SDS011;31078;48.304;11.896;2022-08-01T10:24:58;4.65;;;2.00;;
45344;SDS011;31078;48.304;11.896;2022-08-01T10:27:29;7.30;;;2.33;;
45344;SDS011;31078;48.304;11.896;2022-08-01T10:29:59;4.70;;;2.40;;
45344;SDS011;31078;48.304;11.896;2022-08-01T10:32:30;4.55;;;2.20;;
45344;SDS011;31078;48.304;11.896;2022-08-01T10:34:57;4.35;;;2.33;;
45344;SDS011;31078;48.304;11.896;2022-08-01T10:37:25;7.55;;;2.20;;
45344;SDS011;31078;48.304;11.896;2022-08-01T10:39:53;5.93;;;2.30;;
45344;SDS011;31078;48.304;11.896;2022-08-01T10:42:21;6.40;;;2.63;;
45344;SDS011;31078;48.304;11.896;2022-08-01T10:44:48;3.60;;;2.50;;
45344;SDS011;31078;48.304;11.896;2022-08-01T10:47:17;4.72;;;2.90;;
45344;SDS011;31078;48.304;11.896;2022-08-01T10:49:49;3.35;;;2.28;;
45344;SDS011;31078;48.304;11.896;2022-08-01T10:52:19;4.70;;;2.33;;
45344;SDS011;31078;48.304;11.896;2022-08-01T10:55:13;3.75;;;1.88;;
45344;SDS011;31078;48.304;11.896;2022-08-01T10:57:41;2.83;;;2.03;;
45344;SDS011;31078;48.304;11.896;2022-08-01T11:00:10;4.15;;;2.17;;
45344;SDS011;31078;48.304;11.896;2022-08-01T11:02:56;3.28;;;2.50;;
45344;SDS011;31078;48.304;11.896;2022-08-01T11:05:27;2.90;;;2.00;;
45344;SDS011;31078;48.304;11.896;2022-08-01T11:07:58;3.25;;;2.20;;
45344;SDS011;31078;48.304;11.896;2022-08-01T11:10:30;6.00;;;2.33;;
45344;SDS011;31078;48.304;11.896;2022-08-01T11:13:02;4.32;;;2.05;;
45344;SDS011;31078;48.304;11.896;2022-08-01T11:15:32;3.08;;;1.80;;
45344;SDS011;31078;48.304;11.896;2022-08-01T11:21:04;4.68;;;2.38;;
45344;SDS011;31078;48.304;11.896;2022-08-01T11:23:31;4.10;;;2.20;;
45344;SDS011;31078;48.304;11.896;2022-08-01T11:26:16;7.18;;;2.50;;
45344;SDS011;31078;48.304;11.896;2022-08-01T11:28:44;4.68;;;2.30;;
45344;SDS011;31078;48.304;11.896;2022-08-01T11:31:30;4.65;;;1.90;;
45344;SDS011;31078;48.304;11.896;2022-08-01T11:33:59;2.28;;;1.60;;
45344;SDS011;31078;48.304;11.896;2022-08-01T11:36:27;2.83;;;1.48;;
45344;SDS011;31078;48.304;11.896;2022-08-01T11:39:12;3.90;;;1.50;;
45344;SDS011;31078;48.304;11.896;2022-08-01T11:41:40;2.65;;;1.45;;
45344;SDS011;31078;48.304;11.896;2022-08-01T11:44:08;2.92;;;1.20;;
45344;SDS011;31078;48.304;11.896;2022-08-01T11:46:50;1.20;;;1.00;;
45344;SDS011;31078;48.304;11.896;2022-08-01T11:49:24;3.35;;;1.30;;
45344;SDS011;31078;48.304;11.896;2022-08-01T11:51:58;3.38;;;1.23;;
45344;SDS011;31078;48.304;11.896;2022-08-01T11:54:26;2.22;;;1.17;;
45344;SDS011;31078;48.304;11.896;2022-08-01T11:56:55;3.28;;;1.35;;
45344;SDS011;31078;48.304;11.896;2022-08-01T12:01:52;3.47;;;1.30;;
45344;SDS011;31078;48.304;11.896;2022-08-01T12:04:19;5.80;;;1.67;;
45344;SDS011;31078;48.304;11.896;2022-08-01T12:06:46;4.07;;;1.40;;
45344;SDS011;31078;48.304;11.896;2022-08-01T12:09:19;1.70;;;1.30;;
45344;SDS011;31078;48.304;11.896;2022-08-01T12:11:46;18.65;;;2.17;;
45344;SDS011;31078;48.304;11.896;2022-08-01T12:14:20;4.38;;;1.60;;
45344;SDS011;31078;48.304;11.896;2022-08-01T12:16:48;3.38;;;1.58;;
45344;SDS011;31078;48.304;11.896;2022-08-01T12:19:20;3.42;;;1.40;;
45344;SDS011;31078;48.304;11.896;2022-08-01T12:22:07;4.63;;;1.30;;
45344;SDS011;31078;48.304;11.896;2022-08-01T12:24:37;2.90;;;1.40;;
45344;SDS011;31078;48.304;11.896;2022-08-01T12:27:09;2.17;;;1.50;;
45344;SDS011;31078;48.304;11.896;2022-08-01T12:29:38;5.13;;;1.10;;
45344;SDS011;31078;48.304;11.896;2022-08-01T12:32:20;1.80;;;1.20;;
45344;SDS011;31078;48.304;11.896;2022-08-01T12:34:49;2.75;;;1.23;;
45344;SDS011;31078;48.304;11.896;2022-08-01T12:37:20;5.30;;;2.55;;
45344;SDS011;31078;48.304;11.896;2022-08-01T12:39:54;4.75;;;2.33;;
45344;SDS011;31078;48.304;11.896;2022-08-01T12:48:20;3.08;;;1.38;;
45344;SDS011;31078;48.304;11.896;2022-08-01T12:50:48;1.73;;;0.93;;
45344;SDS011;31078;48.304;11.896;2022-08-01T12:53:15;3.20;;;1.65;;
45344;SDS011;31078;48.304;11.896;2022-08-01T12:55:45;2.05;;;1.08;;
45344;SDS011;31078;48.304;11.896;2022-08-01T12:58:14;4.55;;;1.73;;
45344;SDS011;31078;48.304;11.896;2022-08-01T13:00:43;3.95;;;1.10;;
45344;SDS011;31078;48.304;11.896;2022-08-01T13:03:12;4.10;;;1.30;;
45344;SDS011;31078;48.304;11.896;2022-08-01T13:05:41;2.90;;;1.05;;
45344;SDS011;31078;48.304;11.896;2022-08-01T13:08:09;8.65;;;1.70;;
45344;SDS011;31078;48.304;11.896;2022-08-01T13:10:37;2.83;;;1.10;;
45344;SDS011;31078;48.304;11.896;2022-08-01T13:13:06;4.45;;;1.42;;
45344;SDS011;31078;48.304;11.896;2022-08-01T13:15:34;2.97;;;1.05;;
45344;SDS011;31078;48.304;11.896;2022-08-01T13:20:49;3.50;;;1.25;;
45344;SDS011;31078;48.304;11.896;2022-08-01T13:23:17;3.90;;;1.40;;
45344;SDS011;31078;48.304;11.896;2022-08-01T13:25:49;5.93;;;1.45;;
45344;SDS011;31078;48.304;11.896;2022-08-01T13:28:20;8.20;;;1.23;;
45344;SDS011;31078;48.304;11.896;2022-08-01T13:30:52;1.83;;;1.10;;
45344;SDS011;31078;48.304;11.896;2022-08-01T13:33:23;1.48;;;0.90;;
45344;SDS011;31078;48.304;11.896;2022-08-01T13:35:54;2.00;;;1.15;;
45344;SDS011;31078;48.304;11.896;2022-08-01T13:38:22;4.95;;;1.00;;
45344;SDS011;31078;48.304;11.896;2022-08-01T13:41:09;2.60;;;1.20;;
45344;SDS011;31078;48.304;11.896;2022-08-01T13:43:40;4.82;;;1.38;;
45344;SDS011;31078;48.304;11.896;2022-08-01T13:46:20;2.85;;;1.10;;
45344;SDS011;31078;48.304;11.896;2022-08-01T13:48:49;2.72;;;1.23;;
45344;SDS011;31078;48.304;11.896;2022-08-01T13:51:16;4.18;;;1.63;;
45344;SDS011;31078;48.304;11.896;2022-08-01T13:53:43;3.88;;;1.40;;
45344;SDS011;31078;48.304;11.896;2022-08-01T13:56:10;4.20;;;1.33;;
45344;SDS011;31078;48.304;11.896;2022-08-01T14:01:57;4.85;;;1.15;;
45344;SDS011;31078;48.304;11.896;2022-08-01T14:07:16;4.72;;;1.35;;
45344;SDS011;31078;48.304;11.896;2022-08-01T14:09:48;9.20;;;2.13;;
45344;SDS011;31078;48.304;11.896;2022-08-01T14:12:15;5.35;;;1.50;;
45344;SDS011;31078;48.304;11.896;2022-08-01T14:14:42;5.22;;;1.38;;
45344;SDS011;31078;48.304;11.896;2022-08-01T14:17:11;4.38;;;1.40;;
45344;SDS011;31078;48.304;11.896;2022-08-01T14:19:37;2.95;;;1.40;;
45344;SDS011;31078;48.304;11.896;2022-08-01T14:22:04;2.63;;;1.48;;
45344;SDS011;31078;48.304;11.896;2022-08-01T14:24:31;3.65;;;1.23;;
45344;SDS011;31078;48.304;11.896;2022-08-01T14:29:33;3.42;;;1.50;;
45344;SDS011;31078;48.304;11.896;2022-08-01T14:32:21;5.90;;;1.58;;
45344;SDS011;31078;48.304;11.896;2022-08-01T14:34:47;5.53;;;1.33;;
45344;SDS011;31078;48.304;11.896;2022-08-01T14:37:14;9.43;;;1.80;;
45344;SDS011;31078;48.304;11.896;2022-08-01T14:44:51;3.83;;;1.58;;
45344;SDS011;31078;48.304;11.896;2022-08-01T14:47:18;3.75;;;1.80;;
45344;SDS011;31078;48.304;11.896;2022-08-01T14:49:46;3.88;;;1.30;;
45344;SDS011;31078;48.304;11.896;2022-08-01T14:52:13;7.75;;;1.90;;
45344;SDS011;31078;48.304;11.896;2022-08-01T14:54:46;4.65;;;1.50;;
45344;SDS011;31078;48.304;11.896;2022-08-01T14:57:18;5.45;;;1.70;;
45344;SDS011;31078;48.304;11.896;2022-08-01T14:59:45;2.28;;;1.35;;
45344;SDS011;31078;48.304;11.896;2022-08-01T15:02:12;2.92;;;1.48;;
45344;SDS011;31078;48.304;11.896;2022-08-01T15:07:20;4.57;;;2.20;;
45344;SDS011;31078;48.304;11.896;2022-08-01T15:09:46;2.70;;;1.20;;
45344;SDS011;31078;48.304;11.896;2022-08-01T15:12:13;3.50;;;1.30;;
45344;SDS011;31078;48.304;11.896;2022-08-01T15:19:39;3.90;;;1.35;;
45344;SDS011;31078;48.304;11.896;2022-08-01T15:22:07;6.57;;;1.60;;
45344;SDS011;31078;48.304;11.896;2022-08-01T15:24:35;5.10;;;2.50;;
45344;SDS011;31078;48.304;11.896;2022-08-01T15:27:02;2.25;;;1.20;;
45344;SDS011;31078;48.304;11.896;2022-08-01T15:29:29;2.38;;;1.10;;
45344;SDS011;31078;48.304;11.896;2022-08-01T15:31:56;2.45;;;1.35;;
45344;SDS011;31078;48.304;11.896;2022-08-01T15:34:23;2.10;;;1.20;;
45344;SDS011;31078;48.304;11.896;2022-08-01T15:39:27;3.45;;;1.25;;
45344;SDS011;31078;48.304;11.896;2022-08-01T15:41:56;2.72;;;1.00;;
45344;SDS011;31078;48.304;11.896;2022-08-01T15:44:38;3.47;;;1.38;;
45344;SDS011;31078;48.304;11.896;2022-08-01T15:47:22;2.20;;;1.40;;
45344;SDS011;31078;48.304;11.896;2022-08-01T15:49:51;8.10;;;1.50;;
45344;SDS011;31078;48.304;11.896;2022-08-01T15:52:18;5.43;;;2.00;;
45344;SDS011;31078;48.304;11.896;2022-08-01T15:54:45;5.32;;;1.40;;
45344;SDS011;31078;48.304;11.896;2022-08-01T15:57:13;4.95;;;1.20;;
45344;SDS011;31078;48.304;11.896;2022-08-01T15:59:40;7.05;;;1.70;;